sensor_id;sensor_type;location;lat;lon;timestamp;pressure;altitude;pressure_sealevel;temperature;humidity
59987;BME280;46181;51.498;5.392;2023-03-14T00:02:45;98877.36;;;15.56;58.54102
59987;BME280;46181;51.498;5.392;2023-03-14T00:07:15;98869.45;;;15.51;57.79297
59987;BME280;46181;51.498;5.392;2023-03-14T00:11:46;98864.56;;;15.34;57.2373
59987;BME280;46181;51.498;5.392;2023-03-14T00:16:17;98872.56;;;15.21;56.73047
59987;BME280;46181;51.498;5.392;2023-03-14T00:20:45;98882.54;;;15.11;56.2627
59987;BME280;46181;51.498;5.392;2023-03-14T00:25:17;98891.97;;;15.02;55.47559
59987;BME280;46181;51.498;5.392;2023-03-14T00:29:46;98895.36;;;14.94;55.5127
59987;BME280;46181;51.498;5.392;2023-03-14T00:34:15;98900.78;;;14.99;55.81445
59987;BME280;46181;51.498;5.392;2023-03-14T00:38:46;98911.66;;;15.08;55.29004
59987;BME280;46181;51.498;5.392;2023-03-14T00:43:16;98904.78;;;15.12;55.11328
59987;BME280;46181;51.498;5.392;2023-03-14T00:47:46;98907.99;;;15.14;54.96875
59987;BME280;46181;51.498;5.392;2023-03-14T00:52:15;98915.73;;;15.15;54.86621
59987;BME280;46181;51.498;5.392;2023-03-14T00:56:45;98909.94;;;15.16;54.87988
59987;BME280;46181;51.498;5.392;2023-03-14T01:01:19;98903.77;;;15.17;54.88086
59987;BME280;46181;51.498;5.392;2023-03-14T01:05:46;98901.56;;;15.24;54.52441
59987;BME280;46181;51.498;5.392;2023-03-14T01:14:46;98904.94;;;15.25;54.40039
59987;BME280;46181;51.498;5.392;2023-03-14T01:19:16;98899.8;;;15.27;54.25586
59987;BME280;46181;51.498;5.392;2023-03-14T01:23:46;98894.56;;;15.27;54.19824
59987;BME280;46181;51.498;5.392;2023-03-14T01:28:16;98894.18;;;15.28;54.00586
59987;BME280;46181;51.498;5.392;2023-03-14T01:32:46;98882.52;;;15.25;54.03613
59987;BME280;46181;51.498;5.392;2023-03-14T01:37:15;98879.52;;;15.25;53.91113
59987;BME280;46181;51.498;5.392;2023-03-14T01:41:46;98874.69;;;15.29;53.71094
59987;BME280;46181;51.498;5.392;2023-03-14T01:46:39;98870.4;;;15.2;54.04102
59987;BME280;46181;51.498;5.392;2023-03-14T01:50:45;98857.11;;;15.31;53.78223
59987;BME280;46181;51.498;5.392;2023-03-14T01:55:19;98842.69;;;15.31;53.83984
59987;BME280;46181;51.498;5.392;2023-03-14T01:59:47;98839.45;;;15.33;53.89844
59987;BME280;46181;51.498;5.392;2023-03-14T02:04:16;98843.55;;;15.32;54.06836
59987;BME280;46181;51.498;5.392;2023-03-14T02:08:46;98830.59;;;15.33;54.16016
59987;BME280;46181;51.498;5.392;2023-03-14T02:13:17;98837.04;;;15.33;54.17188
59987;BME280;46181;51.498;5.392;2023-03-14T02:17:46;98832.7;;;15.35;54.28711
59987;BME280;46181;51.498;5.392;2023-03-14T02:22:19;98834.23;;;15.28;54.42773
59987;BME280;46181;51.498;5.392;2023-03-14T02:31:17;98823.19;;;15.26;54.5625
59987;BME280;46181;51.498;5.392;2023-03-14T02:35:49;98820.68;;;15.15;54.54785
59987;BME280;46181;51.498;5.392;2023-03-14T02:40:17;98814.03;;;15.02;54.87207
59987;BME280;46181;51.498;5.392;2023-03-14T02:44:58;98820.21;;;14.86;55.47949
59987;BME280;46181;51.498;5.392;2023-03-14T02:49:17;98807.91;;;15;55.37207
59987;BME280;46181;51.498;5.392;2023-03-14T02:53:46;98812.31;;;15.11;55.44238
59987;BME280;46181;51.498;5.392;2023-03-14T02:58:16;98816.98;;;15.19;55.25879
59987;BME280;46181;51.498;5.392;2023-03-14T03:02:46;98815.94;;;15.23;55.20703
59987;BME280;46181;51.498;5.392;2023-03-14T03:07:16;98820.63;;;15.27;55.20117
59987;BME280;46181;51.498;5.392;2023-03-14T03:11:46;98822.17;;;15.32;54.97852
59987;BME280;46181;51.498;5.392;2023-03-14T03:16:16;98833.27;;;15.33;55.0498
59987;BME280;46181;51.498;5.392;2023-03-14T03:20:46;98824.42;;;15.34;55.02637
59987;BME280;46181;51.498;5.392;2023-03-14T03:25:17;98812.65;;;15.33;54.96973
59987;BME280;46181;51.498;5.392;2023-03-14T03:29:46;98810.93;;;15.33;54.85547
59987;BME280;46181;51.498;5.392;2023-03-14T03:34:16;98812.73;;;15.33;54.82031
59987;BME280;46181;51.498;5.392;2023-03-14T03:38:46;98817.67;;;15.29;54.91895
59987;BME280;46181;51.498;5.392;2023-03-14T03:43:16;98811.16;;;15.31;54.66992
59987;BME280;46181;51.498;5.392;2023-03-14T03:47:46;98795.8;;;15.27;54.83691
59987;BME280;46181;51.498;5.392;2023-03-14T03:52:16;98800.36;;;15.27;54.7002
59987;BME280;46181;51.498;5.392;2023-03-14T03:56:46;98801.34;;;15.28;54.74512
59987;BME280;46181;51.498;5.392;2023-03-14T04:01:17;98794.63;;;15.17;54.95996
59987;BME280;46181;51.498;5.392;2023-03-14T04:05:46;98797.2;;;15.02;55.37305
59987;BME280;46181;51.498;5.392;2023-03-14T04:10:17;98795;;;14.87;55.65137
59987;BME280;46181;51.498;5.392;2023-03-14T04:14:46;98790.25;;;14.81;55.73535
59987;BME280;46181;51.498;5.392;2023-03-14T04:19:16;98792.59;;;14.78;55.92383
59987;BME280;46181;51.498;5.392;2023-03-14T04:23:46;98790.67;;;14.85;55.99023
59987;BME280;46181;51.498;5.392;2023-03-14T04:28:16;98791.59;;;14.9;56.13379
59987;BME280;46181;51.498;5.392;2023-03-14T04:32:47;98790.34;;;14.91;56.38379
59987;BME280;46181;51.498;5.392;2023-03-14T04:37:16;98782.48;;;14.94;56.67285
59987;BME280;46181;51.498;5.392;2023-03-14T04:41:46;98777.86;;;14.95;56.94727
59987;BME280;46181;51.498;5.392;2023-03-14T04:46:16;98775.7;;;14.98;57.12109
59987;BME280;46181;51.498;5.392;2023-03-14T04:50:46;98777.45;;;14.79;57.80273
59987;BME280;46181;51.498;5.392;2023-03-14T04:55:16;98778.86;;;14.62;58.74609
59987;BME280;46181;51.498;5.392;2023-03-14T04:59:46;98788.95;;;14.52;59.49219
59987;BME280;46181;51.498;5.392;2023-03-14T05:04:16;98788.42;;;14.46;60.13184
59987;BME280;46181;51.498;5.392;2023-03-14T05:08:46;98791.09;;;14.43;60.54688
59987;BME280;46181;51.498;5.392;2023-03-14T05:13:16;98780.66;;;14.35;60.77441
59987;BME280;46181;51.498;5.392;2023-03-14T05:17:46;98785.44;;;14.3;61.17676
59987;BME280;46181;51.498;5.392;2023-03-14T05:22:16;98787.59;;;14.26;61.53418
59987;BME280;46181;51.498;5.392;2023-03-14T05:26:46;98785.16;;;14.24;61.87207
59987;BME280;46181;51.498;5.392;2023-03-14T05:31:19;98776.72;;;14.28;62.08008
59987;BME280;46181;51.498;5.392;2023-03-14T05:35:46;98763.92;;;14.35;62.12402
59987;BME280;46181;51.498;5.392;2023-03-14T05:40:17;98767.8;;;14.35;62.2832
59987;BME280;46181;51.498;5.392;2023-03-14T05:44:46;98763.92;;;14.4;62.39258
59987;BME280;46181;51.498;5.392;2023-03-14T05:49:16;98764.17;;;14.4;62.37012
59987;BME280;46181;51.498;5.392;2023-03-14T05:53:46;98754.66;;;14.3;62.57129
59987;BME280;46181;51.498;5.392;2023-03-14T05:58:16;98754.93;;;14.27;62.88477
59987;BME280;46181;51.498;5.392;2023-03-14T06:02:46;98752.42;;;14.29;63.0127
59987;BME280;46181;51.498;5.392;2023-03-14T06:07:16;98751.74;;;14.3;62.97949
59987;BME280;46181;51.498;5.392;2023-03-14T06:11:46;98753.56;;;14.27;63.20215
59987;BME280;46181;51.498;5.392;2023-03-14T06:16:17;98745.13;;;14.2;63.54297
59987;BME280;46181;51.498;5.392;2023-03-14T06:20:46;98747.69;;;14.2;63.80371
59987;BME280;46181;51.498;5.392;2023-03-14T06:25:16;98749.16;;;14.21;64.05469
59987;BME280;46181;51.498;5.392;2023-03-14T06:29:46;98749.99;;;14.23;64.27344
59987;BME280;46181;51.498;5.392;2023-03-14T06:34:16;98755.35;;;14.26;64.45898
59987;BME280;46181;51.498;5.392;2023-03-14T06:38:46;98759.3;;;14.31;64.59082
59987;BME280;46181;51.498;5.392;2023-03-14T06:43:16;98765.05;;;14.35;64.78809
59987;BME280;46181;51.498;5.392;2023-03-14T06:47:46;98770.33;;;14.39;64.94238
59987;BME280;46181;51.498;5.392;2023-03-14T06:52:16;98770.93;;;14.51;65.07324
59987;BME280;46181;51.498;5.392;2023-03-14T06:56:46;98766.88;;;14.64;65.09277
59987;BME280;46181;51.498;5.392;2023-03-14T07:01:24;98781.09;;;14.67;65.19922
59987;BME280;46181;51.498;5.392;2023-03-14T07:05:46;98785.61;;;14.71;64.89844
59987;BME280;46181;51.498;5.392;2023-03-14T07:10:17;98791.73;;;14.67;64.89258
59987;BME280;46181;51.498;5.392;2023-03-14T07:14:46;98792.09;;;14.64;64.79785
59987;BME280;46181;51.498;5.392;2023-03-14T07:19:16;98804.8;;;14.64;64.74121
59987;BME280;46181;51.498;5.392;2023-03-14T07:23:46;98816.62;;;14.63;64.70605
59987;BME280;46181;51.498;5.392;2023-03-14T07:28:16;98848.86;;;14.59;64.67578
59987;BME280;46181;51.498;5.392;2023-03-14T07:32:46;98908.08;;;14.43;64.2793
59987;BME280;46181;51.498;5.392;2023-03-14T07:37:16;98927.81;;;14.01;63.71973
59987;BME280;46181;51.498;5.392;2023-03-14T07:41:46;98946.25;;;13.76;63.7627
59987;BME280;46181;51.498;5.392;2023-03-14T07:46:16;98970.95;;;13.42;63.44141
59987;BME280;46181;51.498;5.392;2023-03-14T07:50:47;98980.2;;;13.15;63.65137
59987;BME280;46181;51.498;5.392;2023-03-14T07:55:17;98991.86;;;12.9;63.75195
59987;BME280;46181;51.498;5.392;2023-03-14T07:59:46;99013.24;;;12.84;64.27344
59987;BME280;46181;51.498;5.392;2023-03-14T08:04:16;99018.61;;;12.78;64.17383
59987;BME280;46181;51.498;5.392;2023-03-14T08:08:46;99038.16;;;12.76;64.43066
59987;BME280;46181;51.498;5.392;2023-03-14T08:13:16;99054.21;;;12.84;64.56543
59987;BME280;46181;51.498;5.392;2023-03-14T08:17:46;99063.91;;;12.85;64.36523
59987;BME280;46181;51.498;5.392;2023-03-14T08:22:16;99086.7;;;12.74;64.37207
59987;BME280;46181;51.498;5.392;2023-03-14T08:26:46;99109.45;;;12.78;64.54688
59987;BME280;46181;51.498;5.392;2023-03-14T08:31:16;99121.34;;;12.77;64.28516
59987;BME280;46181;51.498;5.392;2023-03-14T08:35:46;99135.11;;;12.83;64.54297
59987;BME280;46181;51.498;5.392;2023-03-14T08:40:17;99154.81;;;13;64.03711
59987;BME280;46181;51.498;5.392;2023-03-14T08:44:46;99162.95;;;13.06;63.72852
59987;BME280;46181;51.498;5.392;2023-03-14T08:49:16;99186.71;;;13.05;63.5918
59987;BME280;46181;51.498;5.392;2023-03-14T08:53:46;99193.42;;;13.09;63.12305
59987;BME280;46181;51.498;5.392;2023-03-14T08:58:16;99203.14;;;13.13;63.00586
59987;BME280;46181;51.498;5.392;2023-03-14T09:02:46;99224.45;;;13.27;62.94434
59987;BME280;46181;51.498;5.392;2023-03-14T09:07:16;99234.63;;;13.37;62.6543
59987;BME280;46181;51.498;5.392;2023-03-14T09:11:46;99252.84;;;13.45;62.45117
59987;BME280;46181;51.498;5.392;2023-03-14T09:16:17;99269.09;;;13.64;62.31934
59987;BME280;46181;51.498;5.392;2023-03-14T09:20:46;99286.52;;;13.83;62.05176
59987;BME280;46181;51.498;5.392;2023-03-14T09:25:16;99299.2;;;13.95;61.49121
59987;BME280;46181;51.498;5.392;2023-03-14T09:29:46;99312.21;;;13.94;60.99023
59987;BME280;46181;51.498;5.392;2023-03-14T09:34:16;99323.25;;;13.62;60.76367
59987;BME280;46181;51.498;5.392;2023-03-14T09:38:46;99356.4;;;13.32;61.1875
59987;BME280;46181;51.498;5.392;2023-03-14T09:43:18;99410.13;;;12.86;60.84082
59987;BME280;46181;51.498;5.392;2023-03-14T09:47:46;99418.86;;;12.46;61.14648
59987;BME280;46181;51.498;5.392;2023-03-14T09:52:21;99467.19;;;12.12;61.3584
59987;BME280;46181;51.498;5.392;2023-03-14T09:56:46;99473.2;;;11.85;61.51367
59987;BME280;46181;51.498;5.392;2023-03-14T10:01:20;99501.94;;;11.68;61.99609
59987;BME280;46181;51.498;5.392;2023-03-14T10:05:46;99524.08;;;11.84;62.00781
59987;BME280;46181;51.498;5.392;2023-03-14T10:10:19;99539.98;;;11.99;61.46387
59987;BME280;46181;51.498;5.392;2023-03-14T10:14:53;99556.17;;;12.13;61.15723
59987;BME280;46181;51.498;5.392;2023-03-14T10:19:18;99580.27;;;12.49;60.99219
59987;BME280;46181;51.498;5.392;2023-03-14T10:23:46;99601.38;;;12.6;60.4209
59987;BME280;46181;51.498;5.392;2023-03-14T10:28:32;99617.89;;;12.52;60.17188
59987;BME280;46181;51.498;5.392;2023-03-14T10:32:47;99632.23;;;12.61;59.72168
59987;BME280;46181;51.498;5.392;2023-03-14T10:37:25;99654.54;;;12.68;59.77539
59987;BME280;46181;51.498;5.392;2023-03-14T10:41:50;99663.64;;;12.84;58.66602
59987;BME280;46181;51.498;5.392;2023-03-14T10:46:21;99683.95;;;12.85;58.21484
59987;BME280;46181;51.498;5.392;2023-03-14T10:50:53;99705.22;;;12.69;57.06055
59987;BME280;46181;51.498;5.392;2023-03-14T10:55:19;99732.98;;;12.43;57.15234
59987;BME280;46181;51.498;5.392;2023-03-14T10:59:48;99744.87;;;12.01;57.26758
59987;BME280;46181;51.498;5.392;2023-03-14T11:04:25;99770.05;;;11.68;58.18359
59987;BME280;46181;51.498;5.392;2023-03-14T11:08:53;99779.56;;;11.6;58.7373
59987;BME280;46181;51.498;5.392;2023-03-14T11:13:22;99793.31;;;11.73;59.04883
59987;BME280;46181;51.498;5.392;2023-03-14T11:17:52;99807.68;;;11.93;59.27832
59987;BME280;46181;51.498;5.392;2023-03-14T11:22:23;99819.89;;;12.2;59.55176
59987;BME280;46181;51.498;5.392;2023-03-14T11:26:51;99841.66;;;12.31;58.90039
59987;BME280;46181;51.498;5.392;2023-03-14T11:31:23;99852.59;;;12.16;58.90234
59987;BME280;46181;51.498;5.392;2023-03-14T11:35:52;99872.09;;;12;58.50879
59987;BME280;46181;51.498;5.392;2023-03-14T11:40:23;99898.55;;;11.69;58.69238
59987;BME280;46181;51.498;5.392;2023-03-14T11:44:47;99922.14;;;11.27;58.49023
59987;BME280;46181;51.498;5.392;2023-03-14T11:49:22;99913.05;;;10.93;59.33398
59987;BME280;46181;51.498;5.392;2023-03-14T11:54:01;99922.05;;;10.83;59.83887
59987;BME280;46181;51.498;5.392;2023-03-14T11:58:22;99942.39;;;11;60.33496
59987;BME280;46181;51.498;5.392;2023-03-14T12:02:51;99950.89;;;11.25;60.53906
59987;BME280;46181;51.498;5.392;2023-03-14T12:07:19;99958.33;;;11.53;61.1416
59987;BME280;46181;51.498;5.392;2023-03-14T12:11:50;99970.83;;;12.03;60.72559
59987;BME280;46181;51.498;5.392;2023-03-14T12:16:30;99992.53;;;12.12;60.01465
59987;BME280;46181;51.498;5.392;2023-03-14T12:20:46;100000.1;;;12.22;59.41895
59987;BME280;46181;51.498;5.392;2023-03-14T12:25:23;100009.2;;;12.12;58.24219
59987;BME280;46181;51.498;5.392;2023-03-14T12:30:14;100013.8;;;11.91;58.18066
59987;BME280;46181;51.498;5.392;2023-03-14T12:34:38;100020.3;;;11.8;57.58984
59987;BME280;46181;51.498;5.392;2023-03-14T12:39:05;100025;;;11.71;57.28418
59987;BME280;46181;51.498;5.392;2023-03-14T12:43:33;100024.1;;;11.78;57.49707
59987;BME280;46181;51.498;5.392;2023-03-14T12:48:14;100036;;;11.78;57.05664
59987;BME280;46181;51.498;5.392;2023-03-14T12:52:28;100038.9;;;11.72;56.53027
59987;BME280;46181;51.498;5.392;2023-03-14T12:57:19;100045.5;;;11.57;56.77148
59987;BME280;46181;51.498;5.392;2023-03-14T13:01:24;100050.6;;;11.62;56.85547
59987;BME280;46181;51.498;5.392;2023-03-14T13:06:00;100066.3;;;11.75;56.94043
59987;BME280;46181;51.498;5.392;2023-03-14T13:10:26;100069.8;;;11.93;56.22949
59987;BME280;46181;51.498;5.392;2023-03-14T13:14:50;100085;;;12.02;53.60645
59987;BME280;46181;51.498;5.392;2023-03-14T13:19:23;100084.7;;;11.97;51.9375
59987;BME280;46181;51.498;5.392;2023-03-14T13:23:57;100097.2;;;11.98;50.95508
59987;BME280;46181;51.498;5.392;2023-03-14T13:28:19;100107.7;;;12.08;50.93262
59987;BME280;46181;51.498;5.392;2023-03-14T13:32:50;100109.9;;;12.07;49.34473
59987;BME280;46181;51.498;5.392;2023-03-14T13:37:23;100128.8;;;12.02;48.60254
59987;BME280;46181;51.498;5.392;2023-03-14T13:41:46;100131.7;;;12.06;47.89453
59987;BME280;46181;51.498;5.392;2023-03-14T13:46:21;100141.9;;;12.03;46.36133
59987;BME280;46181;51.498;5.392;2023-03-14T13:50:50;100173.9;;;12.08;46.40039
59987;BME280;46181;51.498;5.392;2023-03-14T13:55:23;100176.5;;;12.08;45.98242
59987;BME280;46181;51.498;5.392;2023-03-14T13:59:46;100191;;;12.28;45.97949
59987;BME280;46181;51.498;5.392;2023-03-14T14:04:24;100208.2;;;12.33;44.41895
59987;BME280;46181;51.498;5.392;2023-03-14T14:08:48;100223.5;;;12.42;43.87305
59987;BME280;46181;51.498;5.392;2023-03-14T14:13:18;100246;;;12.68;44.13672
59987;BME280;46181;51.498;5.392;2023-03-14T14:17:48;100273.3;;;12.92;43.29785
59987;BME280;46181;51.498;5.392;2023-03-14T14:22:17;100280;;;12.96;42.74414
59987;BME280;46181;51.498;5.392;2023-03-14T14:26:50;100289.8;;;13.05;42.51367
59987;BME280;46181;51.498;5.392;2023-03-14T14:31:30;100307.9;;;13;42.24707
59987;BME280;46181;51.498;5.392;2023-03-14T14:35:48;100325.9;;;13.06;41.61719
59987;BME280;46181;51.498;5.392;2023-03-14T14:40:26;100343;;;12.79;40.6582
59987;BME280;46181;51.498;5.392;2023-03-14T14:44:46;100348.2;;;12.67;40.27148
59987;BME280;46181;51.498;5.392;2023-03-14T14:49:18;100350.4;;;12.56;39.88574
59987;BME280;46181;51.498;5.392;2023-03-14T14:53:49;100356.2;;;12.57;42.35352
59987;BME280;46181;51.498;5.392;2023-03-14T14:58:28;100374.6;;;12.45;43.39746
59987;BME280;46181;51.498;5.392;2023-03-14T15:02:49;100395.8;;;12.52;43.62207
59987;BME280;46181;51.498;5.392;2023-03-14T15:07:17;100411.3;;;12.57;43.47852
59987;BME280;46181;51.498;5.392;2023-03-14T15:11:46;100416.1;;;12.59;43.88965
59987;BME280;46181;51.498;5.392;2023-03-14T15:16:20;100425.3;;;12.51;44.50586
59987;BME280;46181;51.498;5.392;2023-03-14T15:20:46;100440.4;;;12.53;44.7793
59987;BME280;46181;51.498;5.392;2023-03-14T15:25:17;100448.3;;;12.48;45.22949
59987;BME280;46181;51.498;5.392;2023-03-14T15:29:46;100466.9;;;12.5;45.92383
59987;BME280;46181;51.498;5.392;2023-03-14T15:34:17;100472.8;;;12.5;45.58301
59987;BME280;46181;51.498;5.392;2023-03-14T15:38:46;100485;;;12.44;44.62402
59987;BME280;46181;51.498;5.392;2023-03-14T15:43:17;100487.5;;;12.29;44.51758
59987;BME280;46181;51.498;5.392;2023-03-14T15:47:46;100506.1;;;12.21;43.76074
59987;BME280;46181;51.498;5.392;2023-03-14T15:52:17;100517.5;;;12.1;42.9668
59987;BME280;46181;51.498;5.392;2023-03-14T15:56:46;100522.2;;;12.01;42.28809
59987;BME280;46181;51.498;5.392;2023-03-14T16:01:16;100539.4;;;11.93;42.12109
59987;BME280;46181;51.498;5.392;2023-03-14T16:05:46;100546.4;;;11.88;42.11621
59987;BME280;46181;51.498;5.392;2023-03-14T16:10:17;100557.9;;;11.84;42.45215
59987;BME280;46181;51.498;5.392;2023-03-14T16:14:46;100562.3;;;11.83;42.05566
59987;BME280;46181;51.498;5.392;2023-03-14T16:19:16;100566.2;;;11.8;40.92871
59987;BME280;46181;51.498;5.392;2023-03-14T16:23:46;100576.1;;;11.66;40.21191
59987;BME280;46181;51.498;5.392;2023-03-14T16:28:16;100592;;;11.63;40.25488
59987;BME280;46181;51.498;5.392;2023-03-14T16:32:48;100600.8;;;11.54;40.48535
59987;BME280;46181;51.498;5.392;2023-03-14T16:37:16;100620.5;;;11.46;40.28418
59987;BME280;46181;51.498;5.392;2023-03-14T16:41:46;100628.7;;;11.37;39.95898
59987;BME280;46181;51.498;5.392;2023-03-14T16:46:19;100630;;;11.24;39.66504
59987;BME280;46181;51.498;5.392;2023-03-14T16:50:47;100639.1;;;11.16;40.01953
59987;BME280;46181;51.498;5.392;2023-03-14T16:55:16;100646.5;;;11.1;40.19531
59987;BME280;46181;51.498;5.392;2023-03-14T16:59:46;100649.2;;;11.03;40.54102
59987;BME280;46181;51.498;5.392;2023-03-14T17:04:16;100652.8;;;10.97;40.53418
59987;BME280;46181;51.498;5.392;2023-03-14T17:08:46;100657.9;;;10.91;40.8457
59987;BME280;46181;51.498;5.392;2023-03-14T17:13:17;100672.5;;;10.87;41.14648
59987;BME280;46181;51.498;5.392;2023-03-14T17:17:46;100677.3;;;10.85;41.37109
59987;BME280;46181;51.498;5.392;2023-03-14T17:22:16;100682.6;;;10.82;41.58496
59987;BME280;46181;51.498;5.392;2023-03-14T17:26:46;100695.9;;;10.78;41.46777
59987;BME280;46181;51.498;5.392;2023-03-14T17:31:18;100710.1;;;10.74;41.92773
59987;BME280;46181;51.498;5.392;2023-03-14T17:35:46;100730.3;;;10.74;41.9834
59987;BME280;46181;51.498;5.392;2023-03-14T17:40:17;100735.3;;;10.64;42.01953
59987;BME280;46181;51.498;5.392;2023-03-14T17:44:46;100748.3;;;10.55;42.16992
59987;BME280;46181;51.498;5.392;2023-03-14T17:49:16;100759.8;;;10.47;42.34277
59987;BME280;46181;51.498;5.392;2023-03-14T17:53:46;100767.9;;;10.4;42.59473
59987;BME280;46181;51.498;5.392;2023-03-14T17:58:16;100781.6;;;10.31;42.89258
59987;BME280;46181;51.498;5.392;2023-03-14T18:02:46;100789.7;;;10.19;43.23047
59987;BME280;46181;51.498;5.392;2023-03-14T18:07:16;100789.2;;;10.05;43.2959
59987;BME280;46181;51.498;5.392;2023-03-14T18:11:46;100800.2;;;9.92;43.56543
59987;BME280;46181;51.498;5.392;2023-03-14T18:16:18;100804.5;;;9.79;43.79883
59987;BME280;46181;51.498;5.392;2023-03-14T18:20:51;100813.7;;;9.69;43.9375
59987;BME280;46181;51.498;5.392;2023-03-14T18:25:18;100829.4;;;9.57;44.20703
59987;BME280;46181;51.498;5.392;2023-03-14T18:29:47;100837.9;;;9.46;44.6123
59987;BME280;46181;51.498;5.392;2023-03-14T18:34:17;100846.7;;;9.35;44.76953
59987;BME280;46181;51.498;5.392;2023-03-14T18:38:46;100856.4;;;9.26;45.21191
59987;BME280;46181;51.498;5.392;2023-03-14T18:43:16;100870.1;;;9.16;45.61719
59987;BME280;46181;51.498;5.392;2023-03-14T18:47:46;100869.5;;;9.04;45.65039
59987;BME280;46181;51.498;5.392;2023-03-14T18:52:16;100874.1;;;8.93;45.94238
59987;BME280;46181;51.498;5.392;2023-03-14T18:56:47;100887;;;8.82;46.33594
59987;BME280;46181;51.498;5.392;2023-03-14T19:01:16;100885.8;;;8.69;46.52441
59987;BME280;46181;51.498;5.392;2023-03-14T19:05:50;100893.8;;;8.56;46.84766
59987;BME280;46181;51.498;5.392;2023-03-14T19:10:18;100895.6;;;8.49;47.00879
59987;BME280;46181;51.498;5.392;2023-03-14T19:14:46;100895.6;;;8.41;47.33594
59987;BME280;46181;51.498;5.392;2023-03-14T19:19:16;100900.8;;;8.33;47.41895
59987;BME280;46181;51.498;5.392;2023-03-14T19:23:47;100906.9;;;8.22;47.62988
59987;BME280;46181;51.498;5.392;2023-03-14T19:28:16;100915.9;;;8.16;47.7041
59987;BME280;46181;51.498;5.392;2023-03-14T19:32:46;100908.4;;;8.1;47.74121
59987;BME280;46181;51.498;5.392;2023-03-14T19:37:16;100920.3;;;8.02;47.85547
59987;BME280;46181;51.498;5.392;2023-03-14T19:41:46;100923.5;;;7.98;47.92969
59987;BME280;46181;51.498;5.392;2023-03-14T19:46:17;100931.6;;;7.89;48.02051
59987;BME280;46181;51.498;5.392;2023-03-14T19:50:46;100942.5;;;7.85;48.28516
59987;BME280;46181;51.498;5.392;2023-03-14T19:55:17;100941.3;;;7.79;48.2793
59987;BME280;46181;51.498;5.392;2023-03-14T19:59:46;100939.9;;;7.73;48.41797
59987;BME280;46181;51.498;5.392;2023-03-14T20:04:16;100946.7;;;7.68;48.53516
59987;BME280;46181;51.498;5.392;2023-03-14T20:08:46;100950.4;;;7.64;48.75586
59987;BME280;46181;51.498;5.392;2023-03-14T20:13:16;100950.2;;;7.61;48.88574
59987;BME280;46181;51.498;5.392;2023-03-14T20:17:47;100950.5;;;7.56;49.0498
59987;BME280;46181;51.498;5.392;2023-03-14T20:22:16;100954.6;;;7.53;49.1582
59987;BME280;46181;51.498;5.392;2023-03-14T20:26:46;100965.1;;;7.51;49.22266
59987;BME280;46181;51.498;5.392;2023-03-14T20:31:17;100964.2;;;7.46;49.48633
59987;BME280;46181;51.498;5.392;2023-03-14T20:35:47;100972.4;;;7.47;49.40918
59987;BME280;46181;51.498;5.392;2023-03-14T20:40:18;100977.9;;;7.42;49.60449
59987;BME280;46181;51.498;5.392;2023-03-14T20:44:46;100979.7;;;7.45;49.57422
59987;BME280;46181;51.498;5.392;2023-03-14T20:49:17;100992.6;;;7.47;49.72266
59987;BME280;46181;51.498;5.392;2023-03-14T20:53:46;100990.2;;;7.45;49.69727
59987;BME280;46181;51.498;5.392;2023-03-14T20:58:16;100995.2;;;7.49;49.81445
59987;BME280;46181;51.498;5.392;2023-03-14T21:02:46;100997.9;;;7.65;49.85449
59987;BME280;46181;51.498;5.392;2023-03-14T21:07:16;101005.7;;;7.85;49.69824
59987;BME280;46181;51.498;5.392;2023-03-14T21:11:46;101006.1;;;7.98;49.62402
59987;BME280;46181;51.498;5.392;2023-03-14T21:16:17;100995.8;;;7.95;49.49707
59987;BME280;46181;51.498;5.392;2023-03-14T21:20:51;100994.4;;;7.86;49.54199
59987;BME280;46181;51.498;5.392;2023-03-14T21:25:17;100993.6;;;7.78;49.5791
59987;BME280;46181;51.498;5.392;2023-03-14T21:29:46;100997.8;;;7.69;49.88281
59987;BME280;46181;51.498;5.392;2023-03-14T21:34:16;101009.8;;;7.69;50.12891
59987;BME280;46181;51.498;5.392;2023-03-14T21:38:47;101007.6;;;7.75;50.2373
59987;BME280;46181;51.498;5.392;2023-03-14T21:43:16;101009.8;;;7.8;50.38867
59987;BME280;46181;51.498;5.392;2023-03-14T21:47:46;101014.3;;;7.89;50.47754
59987;BME280;46181;51.498;5.392;2023-03-14T21:52:18;101012.8;;;7.95;50.60742
59987;BME280;46181;51.498;5.392;2023-03-14T21:56:46;101014.8;;;8.07;50.56543
59987;BME280;46181;51.498;5.392;2023-03-14T22:01:16;101013.3;;;8.1;50.69336
59987;BME280;46181;51.498;5.392;2023-03-14T22:05:49;101010.2;;;8.12;50.96484
59987;BME280;46181;51.498;5.392;2023-03-14T22:10:18;101020.6;;;8.18;51.10645
59987;BME280;46181;51.498;5.392;2023-03-14T22:14:47;101022.9;;;8.21;51.2666
59987;BME280;46181;51.498;5.392;2023-03-14T22:19:16;101025.4;;;8.25;51.51758
59987;BME280;46181;51.498;5.392;2023-03-14T22:23:46;101029.8;;;8.3;51.83691
59987;BME280;46181;51.498;5.392;2023-03-14T22:28:16;101040.5;;;8.38;52.08203
59987;BME280;46181;51.498;5.392;2023-03-14T22:32:46;101043.6;;;8.45;52.37207
59987;BME280;46181;51.498;5.392;2023-03-14T22:37:16;101053.6;;;8.53;52.5166
59987;BME280;46181;51.498;5.392;2023-03-14T22:41:46;101069.2;;;8.62;52.64063
59987;BME280;46181;51.498;5.392;2023-03-14T22:46:17;101069.6;;;8.72;52.82129
59987;BME280;46181;51.498;5.392;2023-03-14T22:50:46;101086;;;8.82;52.93359
59987;BME280;46181;51.498;5.392;2023-03-14T22:55:17;101095.4;;;8.77;53.18555
59987;BME280;46181;51.498;5.392;2023-03-14T22:59:46;101108.8;;;8.44;53.78516
59987;BME280;46181;51.498;5.392;2023-03-14T23:04:16;101118.1;;;8.16;54.625
59987;BME280;46181;51.498;5.392;2023-03-14T23:08:46;101129.4;;;7.85;55.51465
59987;BME280;46181;51.498;5.392;2023-03-14T23:13:17;101112;;;7.65;56.2041